createdAt,value
2022-11-14T00:00:11.963Z,14.13
2022-11-14T00:02:39.956Z,13.37
2022-11-14T00:05:08.118Z,12.03
2022-11-14T00:07:35.762Z,13.97
2022-11-14T00:10:03.257Z,14.70
2022-11-14T00:12:30.747Z,16.73
2022-11-14T00:14:58.374Z,12.97
2022-11-14T00:17:25.929Z,12.70
2022-11-14T00:19:53.409Z,12.17
2022-11-14T00:22:20.898Z,11.67
2022-11-14T00:24:48.366Z,13.07
2022-11-14T00:27:15.844Z,11.20
2022-11-14T00:29:43.297Z,12.80
2022-11-14T00:32:10.786Z,11.10
2022-11-14T00:34:38.266Z,13.23
2022-11-14T00:37:05.757Z,12.73
2022-11-14T00:39:33.240Z,13.17
2022-11-14T00:42:00.793Z,13.40
2022-11-14T00:44:28.233Z,14.33
2022-11-14T00:46:55.738Z,12.90
2022-11-14T00:49:23.189Z,14.90
2022-11-14T00:51:50.631Z,12.37
2022-11-14T00:54:18.124Z,12.67
2022-11-14T00:56:45.567Z,11.70
2022-11-14T00:59:13.077Z,11.40
2022-11-14T01:01:40.525Z,15.40
2022-11-14T01:04:08.209Z,12.07
2022-11-14T01:06:35.856Z,16.27
2022-11-14T01:09:03.517Z,17.13
2022-11-14T01:11:31.182Z,13.77
2022-11-14T01:13:58.622Z,13.47
2022-11-14T01:16:26.080Z,14.53
2022-11-14T01:18:53.562Z,12.73
2022-11-14T01:21:21.046Z,15.67
2022-11-14T01:23:48.504Z,12.83
2022-11-14T01:26:16.004Z,12.73
2022-11-14T01:28:43.496Z,12.00
2022-11-14T01:31:14.006Z,13.97
2022-11-14T01:33:41.505Z,12.73
2022-11-14T01:36:09.429Z,15.03
2022-11-14T01:38:37.601Z,13.40
2022-11-14T01:41:05.131Z,14.67
2022-11-14T01:43:37.217Z,13.80
2022-11-14T01:46:04.750Z,14.20
2022-11-14T01:48:42.252Z,11.90
2022-11-14T01:51:15.768Z,12.27
2022-11-14T01:53:43.883Z,11.10
2022-11-14T01:56:13.927Z,11.47
2022-11-14T01:58:42.946Z,11.53
2022-11-14T02:01:10.689Z,14.00
2022-11-14T02:03:39.766Z,12.60
2022-11-14T02:06:08.027Z,11.77
2022-11-14T02:08:35.969Z,12.53
2022-11-14T02:11:03.407Z,14.57
2022-11-14T02:13:30.893Z,11.40
2022-11-14T02:15:58.371Z,13.40
2022-11-14T02:18:25.885Z,15.27
2022-11-14T02:20:53.367Z,12.33
2022-11-14T02:23:30.785Z,12.10
2022-11-14T02:25:58.434Z,14.30
2022-11-14T02:28:26.284Z,14.93
2022-11-14T02:30:53.880Z,11.27
2022-11-14T02:33:21.322Z,15.47
2022-11-14T02:35:48.795Z,14.20
2022-11-14T02:38:16.263Z,14.87
2022-11-14T02:40:43.852Z,15.23
2022-11-14T02:43:11.310Z,12.57
2022-11-14T02:45:38.773Z,12.20
2022-11-14T02:48:06.355Z,13.67
2022-11-14T02:50:33.801Z,12.33
2022-11-14T02:53:01.277Z,16.10
2022-11-14T02:55:28.802Z,17.90
2022-11-14T02:57:56.306Z,12.67
2022-11-14T03:00:23.767Z,15.53
2022-11-14T03:02:53.172Z,12.93
2022-11-14T03:05:20.841Z,16.57
2022-11-14T03:07:48.340Z,15.47
2022-11-14T03:10:15.839Z,13.80
2022-11-14T03:12:43.253Z,11.30
2022-11-14T03:15:11.179Z,15.17
2022-11-14T03:17:38.593Z,15.10
2022-11-14T03:20:06.765Z,14.67
2022-11-14T03:22:34.207Z,13.40
2022-11-14T03:25:01.822Z,12.73
2022-11-14T03:27:29.281Z,16.97
2022-11-14T03:29:56.714Z,13.10
2022-11-14T03:32:24.187Z,12.43
2022-11-14T03:34:51.633Z,13.50
2022-11-14T03:37:19.288Z,11.37
2022-11-14T03:39:46.750Z,12.30
2022-11-14T03:42:14.175Z,11.67
2022-11-14T03:44:41.770Z,10.63
2022-11-14T03:47:09.234Z,10.47
2022-11-14T03:49:36.696Z,11.77
2022-11-14T03:52:04.348Z,11.83
2022-11-14T03:54:31.872Z,13.77
2022-11-14T03:56:59.325Z,11.57
2022-11-14T03:59:26.811Z,11.43
2022-11-14T04:01:54.265Z,12.37
2022-11-14T04:04:21.729Z,11.90
2022-11-14T04:06:49.264Z,10.83
2022-11-14T04:09:16.746Z,11.97
2022-11-14T04:11:44.174Z,9.13
2022-11-14T04:14:11.684Z,9.77
2022-11-14T04:16:39.126Z,10.33
2022-11-14T04:19:06.596Z,10.60
2022-11-14T04:21:34.034Z,10.73
2022-11-14T04:24:01.493Z,9.77
2022-11-14T04:26:28.949Z,11.60
2022-11-14T04:28:56.661Z,11.20
2022-11-14T04:31:24.119Z,12.23
2022-11-14T04:33:51.578Z,10.13
2022-11-14T04:36:19.001Z,9.70
2022-11-14T04:38:46.469Z,11.80
2022-11-14T04:41:13.927Z,9.63
2022-11-14T04:43:41.369Z,9.37
2022-11-14T04:46:08.830Z,8.23
2022-11-14T04:48:36.326Z,6.60
2022-11-14T04:51:03.766Z,11.00
2022-11-14T04:53:31.234Z,8.33
2022-11-14T04:55:58.645Z,8.00
2022-11-14T04:58:26.132Z,11.10
2022-11-14T05:00:53.566Z,8.67
2022-11-14T05:03:20.978Z,8.77
2022-11-14T05:05:48.460Z,8.27
2022-11-14T05:08:15.894Z,7.93
2022-11-14T05:10:44.078Z,8.93
2022-11-14T05:13:11.989Z,7.43
2022-11-14T05:15:39.522Z,6.90
2022-11-14T05:18:07.069Z,5.57
2022-11-14T05:20:34.617Z,8.53
2022-11-14T05:23:02.093Z,6.33
2022-11-14T05:25:29.563Z,5.70
2022-11-14T05:27:57.042Z,5.63
2022-11-14T05:30:24.466Z,7.87
2022-11-14T05:32:52.503Z,6.00
2022-11-14T05:35:20.021Z,8.77
2022-11-14T05:37:47.494Z,5.40
2022-11-14T05:40:14.968Z,7.50
2022-11-14T05:42:42.436Z,7.33
2022-11-14T05:45:10.246Z,8.00
2022-11-14T05:47:37.741Z,7.37
2022-11-14T05:50:05.427Z,6.80
2022-11-14T05:52:32.926Z,6.97
2022-11-14T05:55:00.337Z,7.07
2022-11-14T05:57:27.836Z,7.40
2022-11-14T05:59:55.302Z,6.33
2022-11-14T06:02:22.834Z,7.73
2022-11-14T06:04:50.316Z,8.73
2022-11-14T06:07:20.303Z,6.33
2022-11-14T06:09:48.185Z,6.73
2022-11-14T06:12:15.605Z,8.40
2022-11-14T06:14:43.059Z,6.53
2022-11-14T06:17:10.520Z,7.57
2022-11-14T06:19:38.019Z,8.77
2022-11-14T06:22:05.429Z,7.27
2022-11-14T06:24:32.902Z,6.57
2022-11-14T06:27:00.678Z,7.97
2022-11-14T06:29:31.398Z,8.70
2022-11-14T06:32:02.860Z,7.13
2022-11-14T06:34:30.331Z,8.50
2022-11-14T06:36:57.824Z,9.70
2022-11-14T06:39:25.313Z,7.13
2022-11-14T06:41:52.819Z,7.60
2022-11-14T06:44:20.232Z,7.23
2022-11-14T06:46:47.739Z,10.07
2022-11-14T06:49:15.298Z,7.80
2022-11-14T06:51:42.851Z,7.57
2022-11-14T06:54:13.279Z,6.90
2022-11-14T06:56:40.745Z,7.10
2022-11-14T06:59:08.326Z,8.83
2022-11-14T07:01:35.894Z,7.87
2022-11-14T07:04:03.519Z,7.87
2022-11-14T07:06:31.387Z,8.17
2022-11-14T07:08:59.048Z,7.13
2022-11-14T07:11:27.745Z,7.70
2022-11-14T07:14:02.102Z,8.83
2022-11-14T07:16:30.612Z,13.87
2022-11-14T07:18:58.747Z,10.37
2022-11-14T07:21:26.856Z,8.20
2022-11-14T07:23:54.408Z,8.07
2022-11-14T07:26:21.930Z,9.07
2022-11-14T07:28:52.858Z,8.33
2022-11-14T07:31:22.244Z,10.20
2022-11-14T07:33:49.699Z,9.53
2022-11-14T07:36:17.421Z,10.10
2022-11-14T07:38:44.941Z,10.03
2022-11-14T07:41:13.641Z,10.53
2022-11-14T07:43:41.567Z,8.90
2022-11-14T07:46:11.407Z,9.93
2022-11-14T07:48:38.929Z,13.60
2022-11-14T07:51:07.513Z,10.93
2022-11-14T07:53:35.263Z,10.27
2022-11-14T07:56:03.371Z,10.07
2022-11-14T07:58:31.193Z,17.07
2022-11-14T08:01:02.623Z,11.70
2022-11-14T08:03:30.498Z,12.47
2022-11-14T08:06:04.836Z,13.97
2022-11-14T08:08:32.867Z,14.93
2022-11-14T08:11:00.988Z,15.03
2022-11-14T08:13:33.443Z,17.37
2022-11-14T08:16:12.810Z,16.93
2022-11-14T08:18:40.851Z,19.87
2022-11-14T08:21:08.608Z,18.67
2022-11-14T08:23:36.116Z,20.53
2022-11-14T08:26:03.599Z,17.73
2022-11-14T08:28:31.976Z,18.23
2022-11-14T08:31:03.181Z,19.90
2022-11-14T08:33:31.374Z,20.33
2022-11-14T08:36:05.281Z,23.47
2022-11-14T08:38:33.776Z,21.73
2022-11-14T08:41:02.875Z,20.30
2022-11-14T08:43:31.022Z,20.07
2022-11-14T08:46:02.426Z,22.87
2022-11-14T08:48:31.316Z,20.23
2022-11-14T08:51:02.575Z,21.63
2022-11-14T08:53:30.119Z,24.13
2022-11-14T08:55:57.634Z,21.80
2022-11-14T08:58:25.149Z,22.33
2022-11-14T09:00:52.589Z,21.93
2022-11-14T09:03:20.162Z,19.27
2022-11-14T09:05:52.144Z,21.10
2022-11-14T09:08:19.696Z,21.13
2022-11-14T09:10:47.249Z,23.63
2022-11-14T09:13:14.683Z,22.57
2022-11-14T09:15:42.604Z,20.83
2022-11-14T09:18:11.116Z,19.77
2022-11-14T09:20:40.296Z,21.03
2022-11-14T09:23:08.096Z,24.83
2022-11-14T09:25:36.317Z,22.43
2022-11-14T09:28:04.999Z,24.93
2022-11-14T09:30:32.705Z,22.90
2022-11-14T09:33:00.969Z,21.17
2022-11-14T09:35:28.868Z,21.90
2022-11-14T09:38:03.430Z,21.77
2022-11-14T09:40:32.053Z,24.33
2022-11-14T09:42:59.463Z,22.30
2022-11-14T09:45:27.772Z,23.57
2022-11-14T09:47:56.970Z,20.70
2022-11-14T09:50:29.419Z,24.17
2022-11-14T09:52:58.025Z,26.30
2022-11-14T09:55:33.749Z,23.83
2022-11-14T09:58:03.709Z,27.07
2022-11-14T10:00:43.952Z,21.60
2022-11-14T10:03:19.758Z,24.90
2022-11-14T10:05:57.881Z,27.40
2022-11-14T10:08:40.748Z,23.77
2022-11-14T10:11:10.338Z,28.30
2022-11-14T10:13:47.127Z,27.03
2022-11-14T10:16:44.076Z,24.50
2022-11-14T10:19:23.543Z,26.17
2022-11-14T10:21:53.807Z,26.70
2022-11-14T10:24:40.308Z,23.97
2022-11-14T10:27:16.747Z,22.77
2022-11-14T10:29:44.271Z,23.40
2022-11-14T10:32:11.653Z,27.43
2022-11-14T10:34:48.457Z,24.05
2022-11-14T10:37:19.371Z,24.53
2022-11-14T10:39:50.675Z,19.70
2022-11-14T10:42:27.269Z,21.80
2022-11-14T10:44:59.190Z,19.17
2022-11-14T10:47:30.848Z,19.93
2022-11-14T10:50:00.907Z,17.93
2022-11-14T10:52:35.886Z,17.03
2022-11-14T10:55:14.729Z,17.57
2022-11-14T10:57:42.671Z,16.13
2022-11-14T11:00:13.972Z,16.33
2022-11-14T11:02:48.507Z,16.07
2022-11-14T11:05:16.805Z,15.87
2022-11-14T11:07:47.816Z,17.73
2022-11-14T11:10:22.960Z,17.03
2022-11-14T11:12:51.723Z,14.83
2022-11-14T11:15:21.931Z,16.47
2022-11-14T11:17:59.377Z,20.33
2022-11-14T11:20:29.938Z,20.40
2022-11-14T11:23:12.500Z,19.00
2022-11-14T11:25:40.658Z,21.83
2022-11-14T11:28:16.012Z,17.07
2022-11-14T11:31:00.144Z,21.23
2022-11-14T11:33:29.452Z,19.40
2022-11-14T11:35:58.905Z,18.47
2022-11-14T11:38:27.863Z,17.10
2022-11-14T11:40:59.407Z,18.93
2022-11-14T11:43:39.209Z,19.17
2022-11-14T11:46:12.304Z,16.37
2022-11-14T11:48:40.615Z,17.63
2022-11-14T11:51:13.019Z,18.47
2022-11-14T11:53:42.472Z,17.40
2022-11-14T11:56:12.457Z,16.93
2022-11-14T11:58:50.156Z,16.13
2022-11-14T12:01:17.938Z,16.90
2022-11-14T12:03:48.211Z,16.37
2022-11-14T12:06:15.762Z,21.53
2022-11-14T12:08:43.211Z,16.97
2022-11-14T12:11:14.834Z,16.00
2022-11-14T12:14:02.694Z,19.07
2022-11-14T12:16:30.150Z,18.53
2022-11-14T12:19:00.367Z,19.07
2022-11-14T12:21:48.102Z,19.53
2022-11-14T12:24:27.843Z,18.33
2022-11-14T12:27:19.872Z,20.73
2022-11-14T12:29:47.361Z,23.27
2022-11-14T12:32:18.024Z,22.30
2022-11-14T12:34:47.535Z,17.37
2022-11-14T12:37:17.877Z,18.87
2022-11-14T12:39:55.604Z,19.00
2022-11-14T12:42:23.144Z,20.50
2022-11-14T12:44:50.702Z,18.53
2022-11-14T12:47:25.031Z,19.33
2022-11-14T12:49:52.469Z,20.53
2022-11-14T12:52:38.434Z,20.47
2022-11-14T12:55:25.889Z,17.17
2022-11-14T12:57:59.259Z,20.07
2022-11-14T13:00:27.310Z,21.83
2022-11-14T13:02:57.629Z,22.60
2022-11-14T13:05:39.460Z,22.13
2022-11-14T13:08:16.202Z,16.83
2022-11-14T13:10:43.751Z,17.33
2022-11-14T13:13:12.108Z,21.30
2022-11-14T13:15:58.545Z,20.33
2022-11-14T13:18:26.824Z,21.53
2022-11-14T13:21:02.495Z,18.23
2022-11-14T13:23:30.176Z,19.20
2022-11-14T13:26:13.011Z,19.80
2022-11-14T13:28:50.752Z,19.60
2022-11-14T13:31:22.335Z,18.10
2022-11-14T13:33:49.795Z,17.93
2022-11-14T13:36:43.352Z,19.03
2022-11-14T13:39:10.910Z,20.37
2022-11-14T13:41:48.011Z,21.57
2022-11-14T13:44:21.637Z,20.20
2022-11-14T13:47:06.718Z,23.43
2022-11-14T13:49:57.319Z,20.97
2022-11-14T13:52:28.269Z,22.97
2022-11-14T13:54:56.054Z,22.33
2022-11-14T13:57:39.883Z,21.03
2022-11-14T14:00:20.016Z,24.60
2022-11-14T14:03:14.620Z,25.97
2022-11-14T14:06:05.361Z,24.93
2022-11-14T14:08:33.316Z,26.87
2022-11-14T14:11:19.550Z,24.73
2022-11-14T14:14:03.918Z,22.77
2022-11-14T14:16:44.028Z,25.37
2022-11-14T14:19:20.633Z,25.53
2022-11-14T14:21:54.859Z,23.53
2022-11-14T14:24:31.341Z,22.67
2022-11-14T14:27:06.668Z,26.50
2022-11-14T14:29:52.125Z,22.17
2022-11-14T14:32:20.076Z,23.10
2022-11-14T14:34:47.602Z,25.60
2022-11-14T14:37:19.726Z,24.93
2022-11-14T14:40:00.517Z,24.50
2022-11-14T14:42:34.949Z,24.90
2022-11-14T14:45:03.855Z,25.30
2022-11-14T14:47:39.976Z,21.67
2022-11-14T14:50:13.841Z,22.70
2022-11-14T14:52:41.311Z,25.43
2022-11-14T14:55:18.723Z,23.30
2022-11-14T14:57:46.295Z,23.37
2022-11-14T15:00:19.833Z,23.63
2022-11-14T15:02:47.338Z,22.63
2022-11-14T15:05:22.639Z,25.07
2022-11-14T15:07:51.402Z,21.17
2022-11-14T15:10:21.701Z,22.63
2022-11-14T15:12:49.347Z,24.33
2022-11-14T15:15:17.232Z,23.43
2022-11-14T15:17:44.707Z,20.23
2022-11-14T15:20:22.493Z,25.03
2022-11-14T15:23:08.566Z,22.27
2022-11-14T15:25:36.291Z,26.60
2022-11-14T15:28:04.026Z,22.97
2022-11-14T15:30:32.749Z,27.50
2022-11-14T15:33:02.632Z,23.27
2022-11-14T15:35:31.797Z,23.73
2022-11-14T15:38:21.920Z,21.23
2022-11-14T15:41:08.598Z,18.83
2022-11-14T15:43:45.322Z,19.60
2022-11-14T15:46:31.645Z,19.93
2022-11-14T15:48:59.309Z,24.20
2022-11-14T15:51:39.650Z,21.73
2022-11-14T15:54:19.489Z,24.30
2022-11-14T15:56:47.037Z,24.63
2022-11-14T15:59:14.929Z,20.27
2022-11-14T16:01:46.720Z,25.53
2022-11-14T16:04:22.741Z,21.97
2022-11-14T16:06:53.733Z,19.07
2022-11-14T16:09:21.982Z,22.60
2022-11-14T16:11:49.456Z,21.50
2022-11-14T16:14:17.023Z,20.43
2022-11-14T16:16:44.533Z,22.70
2022-11-14T16:19:14.441Z,19.97
2022-11-14T16:21:41.950Z,23.37
2022-11-14T16:24:17.043Z,19.73
2022-11-14T16:26:44.619Z,19.97
2022-11-14T16:29:12.243Z,19.50
2022-11-14T16:31:39.975Z,21.07
2022-11-14T16:34:07.793Z,22.53
2022-11-14T16:36:35.322Z,18.90
2022-11-14T16:39:04.128Z,19.50
2022-11-14T16:41:31.636Z,18.27
2022-11-14T16:43:59.034Z,21.30
2022-11-14T16:46:26.492Z,20.20
2022-11-14T16:48:55.201Z,22.67
2022-11-14T16:51:46.605Z,19.57
2022-11-14T16:54:13.023Z,22.43
2022-11-14T16:56:40.667Z,21.17
2022-11-14T16:59:09.321Z,20.53
2022-11-14T17:01:37.029Z,20.57
2022-11-14T17:04:04.775Z,18.00
2022-11-14T17:06:32.401Z,20.60
2022-11-14T17:09:00.367Z,20.13
2022-11-14T17:11:28.243Z,16.83
2022-11-14T17:13:56.222Z,19.77
2022-11-14T17:16:23.866Z,20.20
2022-11-14T17:18:55.043Z,19.73
2022-11-14T17:21:22.887Z,19.10
2022-11-14T17:23:57.048Z,20.03
2022-11-14T17:26:24.734Z,18.13
2022-11-14T17:28:52.290Z,19.63
2022-11-14T17:31:19.843Z,17.23
2022-11-14T17:33:57.373Z,20.97
2022-11-14T17:36:27.098Z,18.33
2022-11-14T17:38:55.992Z,23.60
2022-11-14T17:41:23.566Z,18.07
2022-11-14T17:43:54.351Z,17.60
2022-11-14T17:46:21.810Z,24.17
2022-11-14T17:48:49.629Z,19.87
2022-11-14T17:51:17.203Z,18.97
2022-11-14T17:53:44.759Z,20.40
2022-11-14T17:56:16.197Z,22.60
2022-11-14T17:58:43.912Z,18.37
2022-11-14T18:01:12.284Z,21.73
2022-11-14T18:03:39.982Z,16.70
2022-11-14T18:06:14.574Z,23.90
2022-11-14T18:08:42.283Z,19.43
2022-11-14T18:11:10.734Z,21.67
2022-11-14T18:13:38.605Z,21.13
2022-11-14T18:16:07.725Z,22.00
2022-11-14T18:18:36.217Z,19.80
2022-11-14T18:21:22.739Z,18.47
2022-11-14T18:23:54.269Z,20.30
2022-11-14T18:26:22.846Z,19.80
2022-11-14T18:28:54.809Z,21.67
2022-11-14T18:31:22.335Z,22.03
2022-11-14T18:33:49.993Z,18.70
2022-11-14T18:36:17.701Z,19.20
2022-11-14T18:38:45.201Z,24.03
2022-11-14T18:41:19.977Z,22.83
2022-11-14T18:43:47.837Z,20.13
2022-11-14T18:46:16.564Z,22.73
2022-11-14T18:48:45.406Z,19.90
2022-11-14T18:51:14.651Z,22.10
2022-11-14T18:53:42.393Z,17.73
2022-11-14T18:56:14.036Z,19.97
2022-11-14T18:58:42.262Z,21.33
2022-11-14T19:01:12.706Z,19.50
2022-11-14T19:03:40.749Z,20.77
2022-11-14T19:06:08.860Z,21.47
2022-11-14T19:08:36.378Z,20.20
2022-11-14T19:11:05.184Z,19.43
2022-11-14T19:13:33.176Z,19.60
2022-11-14T19:16:04.484Z,20.03
2022-11-14T19:18:32.412Z,20.57
2022-11-14T19:21:00.882Z,20.47
2022-11-14T19:23:29.222Z,21.80
2022-11-14T19:25:59.979Z,23.73
2022-11-14T19:28:27.937Z,20.67
2022-11-14T19:31:00.493Z,17.90
2022-11-14T19:33:27.857Z,16.93
2022-11-14T19:35:55.191Z,22.13
2022-11-14T19:38:22.390Z,20.03
2022-11-14T19:40:49.674Z,20.37
2022-11-14T19:43:18.055Z,18.77
2022-11-14T19:45:45.250Z,20.40
2022-11-14T19:48:14.212Z,22.33
2022-11-14T19:50:41.370Z,20.63
2022-11-14T19:53:08.555Z,20.57
2022-11-14T19:55:35.765Z,19.83
2022-11-14T19:58:03.058Z,18.37
2022-11-14T20:00:30.251Z,21.63
2022-11-14T20:02:57.399Z,20.77
2022-11-14T20:05:24.590Z,20.40
2022-11-14T20:07:53.599Z,20.33
2022-11-14T20:10:20.888Z,17.73
2022-11-14T20:12:48.079Z,17.60
2022-11-14T20:15:15.334Z,19.00
2022-11-14T20:17:42.588Z,17.40
2022-11-14T20:20:10.333Z,18.37
2022-11-14T20:22:37.431Z,20.77
2022-11-14T20:25:05.121Z,17.63
2022-11-14T20:27:32.365Z,16.27
2022-11-14T20:30:00.678Z,16.90
2022-11-14T20:32:27.859Z,15.53
2022-11-14T20:34:56.326Z,17.20
2022-11-14T20:37:24.543Z,18.07
2022-11-14T20:39:51.572Z,17.37
2022-11-14T20:42:19.926Z,16.77
2022-11-14T20:44:48.302Z,18.50
2022-11-14T20:47:16.735Z,17.67
2022-11-14T20:49:43.795Z,19.07
2022-11-14T20:52:10.979Z,19.93
2022-11-14T20:54:39.291Z,17.23
2022-11-14T20:57:06.443Z,19.13
2022-11-14T20:59:33.747Z,17.77
2022-11-14T21:02:01.025Z,16.70
2022-11-14T21:04:28.226Z,20.70
2022-11-14T21:06:56.194Z,16.23
2022-11-14T21:09:24.063Z,17.33
2022-11-14T21:11:51.108Z,16.57
2022-11-14T21:14:18.261Z,16.00
2022-11-14T21:16:45.438Z,16.90
2022-11-14T21:19:14.091Z,13.40
2022-11-14T21:21:41.187Z,15.53
2022-11-14T21:24:08.367Z,15.53
2022-11-14T21:26:38.827Z,13.17
2022-11-14T21:29:15.928Z,15.00
2022-11-14T21:31:45.527Z,17.03
2022-11-14T21:34:15.234Z,17.83
2022-11-14T21:36:45.352Z,14.07
2022-11-14T21:39:16.737Z,15.10
2022-11-14T21:41:47.603Z,15.57
2022-11-14T21:44:15.921Z,16.60
2022-11-14T21:46:44.023Z,15.10
2022-11-14T21:49:11.482Z,15.27
2022-11-14T21:51:38.949Z,17.80
2022-11-14T21:54:06.574Z,14.50
2022-11-14T21:56:35.628Z,15.33
2022-11-14T21:59:08.682Z,15.27
2022-11-14T22:01:35.874Z,15.00
2022-11-14T22:04:03.789Z,17.03
2022-11-14T22:06:31.025Z,17.57
2022-11-14T22:08:58.204Z,16.53
2022-11-14T22:11:25.401Z,15.37
2022-11-14T22:13:52.600Z,19.47
2022-11-14T22:16:19.858Z,16.13
2022-11-14T22:18:47.291Z,14.83
2022-11-14T22:21:14.527Z,14.60
2022-11-14T22:23:41.741Z,16.23
2022-11-14T22:26:09.252Z,16.33
2022-11-14T22:28:36.754Z,15.37
2022-11-14T22:31:12.647Z,15.03
2022-11-14T22:33:45.698Z,14.93
2022-11-14T22:36:19.976Z,14.63
2022-11-14T22:38:47.863Z,16.70
2022-11-14T22:41:32.823Z,15.17
2022-11-14T22:44:01.775Z,15.03
2022-11-14T22:46:29.682Z,14.87
2022-11-14T22:48:56.894Z,14.33
2022-11-14T22:51:26.260Z,15.67
2022-11-14T22:53:55.826Z,14.90
2022-11-14T22:56:25.839Z,15.03
2022-11-14T22:58:53.158Z,15.23
2022-11-14T23:01:24.419Z,12.30
2022-11-14T23:03:56.668Z,15.17
2022-11-14T23:06:25.076Z,16.20
2022-11-14T23:08:52.718Z,14.30
2022-11-14T23:11:23.306Z,14.87
2022-11-14T23:13:53.120Z,14.87
2022-11-14T23:16:21.966Z,13.27
2022-11-14T23:18:50.089Z,12.97
2022-11-14T23:21:20.327Z,14.73
2022-11-14T23:24:02.122Z,14.50
2022-11-14T23:26:31.779Z,14.10
2022-11-14T23:29:00.422Z,13.20
2022-11-14T23:31:28.381Z,13.47
2022-11-14T23:33:56.643Z,14.87
2022-11-14T23:36:24.778Z,13.90
2022-11-14T23:38:53.579Z,14.93
2022-11-14T23:41:23.012Z,14.70
2022-11-14T23:43:50.183Z,14.63
2022-11-14T23:46:18.683Z,15.43
2022-11-14T23:48:45.799Z,12.77
2022-11-14T23:51:12.938Z,12.20
2022-11-14T23:53:40.216Z,15.10
2022-11-14T23:56:08.753Z,15.23
2022-11-14T23:58:37.053Z,14.83
